createdAt,value
2023-10-06T00:00:32.742Z,16.02
2023-10-06T00:03:07.551Z,16.02
2023-10-06T00:05:35.993Z,16.00
2023-10-06T00:08:09.541Z,15.98
2023-10-06T00:10:37.458Z,15.96
2023-10-06T00:13:07.146Z,15.93
2023-10-06T00:15:41.128Z,15.94
2023-10-06T00:18:10.090Z,15.93
2023-10-06T00:20:50.519Z,15.91
2023-10-06T00:23:23.090Z,15.87
2023-10-06T00:25:56.501Z,15.85
2023-10-06T00:28:28.258Z,15.87
2023-10-06T00:30:58.270Z,15.86
2023-10-06T00:33:38.682Z,15.85
2023-10-06T00:36:14.407Z,15.83
2023-10-06T00:41:45.724Z,15.78
2023-10-06T00:44:13.504Z,15.77
2023-10-06T00:46:43.473Z,15.76
2023-10-06T00:49:11.179Z,15.75
2023-10-06T00:51:42.656Z,15.74
2023-10-06T00:54:10.452Z,15.72
2023-10-06T00:56:39.942Z,15.72
2023-10-06T00:59:07.847Z,15.70
2023-10-06T01:01:36.461Z,15.70
2023-10-06T01:04:10.075Z,15.68
2023-10-06T01:06:40.317Z,15.67
2023-10-06T01:09:13.497Z,15.66
2023-10-06T01:11:44.725Z,15.66
2023-10-06T01:14:15.569Z,15.64
2023-10-06T01:16:44.413Z,15.63
2023-10-06T01:19:38.738Z,15.62
2023-10-06T01:22:23.345Z,15.65
2023-10-06T01:24:51.335Z,15.67
2023-10-06T01:27:20.659Z,15.66
2023-10-06T01:29:52.997Z,15.65
2023-10-06T01:32:21.284Z,15.67
2023-10-06T01:34:51.787Z,15.68
2023-10-06T01:37:19.840Z,15.68
2023-10-06T01:39:49.826Z,15.65
2023-10-06T01:42:25.881Z,15.67
2023-10-06T01:44:53.597Z,15.64
2023-10-06T01:47:22.612Z,15.61
2023-10-06T01:49:50.299Z,15.58
2023-10-06T01:52:20.791Z,15.56
2023-10-06T01:54:49.030Z,15.55
2023-10-06T01:57:17.685Z,15.50
2023-10-06T01:59:45.408Z,15.49
2023-10-06T02:02:14.717Z,15.52
2023-10-06T02:04:47.009Z,15.51
2023-10-06T02:07:15.327Z,15.51
2023-10-06T02:09:44.561Z,15.52
2023-10-06T02:12:14.248Z,15.52
2023-10-06T02:14:42.426Z,15.51
2023-10-06T02:17:13.315Z,15.50
2023-10-06T02:19:43.154Z,15.49
2023-10-06T02:22:12.408Z,15.48
2023-10-06T02:24:40.733Z,15.50
2023-10-06T02:27:09.611Z,15.50
2023-10-06T02:29:37.170Z,15.47
2023-10-06T02:32:08.652Z,15.47
2023-10-06T02:34:37.787Z,15.44
2023-10-06T02:37:07.490Z,15.43
2023-10-06T02:39:38.134Z,15.44
2023-10-06T02:42:10.937Z,15.43
2023-10-06T02:44:40.147Z,15.39
2023-10-06T02:47:11.793Z,15.38
2023-10-06T02:49:49.865Z,15.40
2023-10-06T02:52:22.206Z,15.37
2023-10-06T02:55:06.004Z,15.36
2023-10-06T02:57:37.467Z,15.38
2023-10-06T03:00:30.138Z,15.36
2023-10-06T03:03:03.932Z,15.38
2023-10-06T03:05:35.426Z,15.35
2023-10-06T03:08:10.633Z,15.37
2023-10-06T03:10:46.278Z,15.36
2023-10-06T03:13:18.082Z,15.35
2023-10-06T03:15:48.825Z,15.35
2023-10-06T03:18:18.931Z,15.36
2023-10-06T03:21:14.129Z,15.34
2023-10-06T03:23:59.357Z,15.31
2023-10-06T03:26:32.018Z,15.28
2023-10-06T03:29:04.574Z,15.28
2023-10-06T03:31:48.465Z,15.32
2023-10-06T03:34:21.585Z,15.33
2023-10-06T03:36:58.946Z,15.34
2023-10-06T03:39:31.096Z,15.35
2023-10-06T03:42:05.198Z,15.34
2023-10-06T03:44:32.982Z,15.34
2023-10-06T03:47:01.917Z,15.30
2023-10-06T03:49:35.019Z,15.31
2023-10-06T03:52:10.708Z,15.29
2023-10-06T03:54:38.860Z,15.29
2023-10-06T03:57:06.646Z,15.27
2023-10-06T03:59:34.300Z,15.26
2023-10-06T04:02:04.458Z,15.24
2023-10-06T04:04:32.364Z,15.21
2023-10-06T04:06:59.959Z,15.19
2023-10-06T04:09:32.136Z,15.19
2023-10-06T04:12:02.739Z,15.18
2023-10-06T04:14:33.189Z,15.18
2023-10-06T04:17:02.784Z,15.16
2023-10-06T04:19:30.603Z,15.18
2023-10-06T04:21:58.542Z,15.20
2023-10-06T04:24:26.197Z,15.21
2023-10-06T04:26:53.872Z,15.24
2023-10-06T04:29:22.079Z,15.24
2023-10-06T04:31:50.319Z,15.24
2023-10-06T04:34:18.082Z,15.24
2023-10-06T04:36:45.751Z,15.24
2023-10-06T04:39:17.871Z,15.21
2023-10-06T04:41:45.585Z,15.19
2023-10-06T04:44:13.967Z,15.19
2023-10-06T04:46:41.870Z,15.21
2023-10-06T04:49:09.734Z,15.22
2023-10-06T04:51:37.630Z,15.24
2023-10-06T04:56:36.863Z,15.26
2023-10-06T04:59:04.534Z,15.24
2023-10-06T05:01:32.550Z,15.27
2023-10-06T05:04:00.530Z,15.27
2023-10-06T05:06:28.394Z,15.27
2023-10-06T05:08:56.024Z,15.28
2023-10-06T05:11:25.011Z,15.29
2023-10-06T05:13:54.910Z,15.26
2023-10-06T05:16:25.014Z,15.26
2023-10-06T05:18:53.191Z,15.24
2023-10-06T05:21:21.795Z,15.22
2023-10-06T05:23:49.957Z,15.20
2023-10-06T05:26:20.279Z,15.18
2023-10-06T05:28:48.492Z,15.18
2023-10-06T05:31:16.362Z,15.15
2023-10-06T05:33:43.988Z,15.15
2023-10-06T05:36:13.032Z,15.15
2023-10-06T05:38:41.524Z,15.15
2023-10-06T05:41:13.356Z,15.16
2023-10-06T05:43:42.478Z,15.17
2023-10-06T05:46:11.401Z,15.16
2023-10-06T05:48:40.015Z,15.14
2023-10-06T05:51:11.384Z,15.13
2023-10-06T05:53:41.656Z,15.13
2023-10-06T05:56:09.786Z,15.11
2023-10-06T05:58:42.088Z,15.08
2023-10-06T06:01:20.518Z,15.06
2023-10-06T06:03:49.039Z,15.06
2023-10-06T06:06:17.938Z,15.03
2023-10-06T06:08:49.554Z,15.02
2023-10-06T06:11:18.313Z,15.02
2023-10-06T06:13:52.728Z,15.01
2023-10-06T06:16:23.793Z,15.01
2023-10-06T06:18:52.297Z,15.02
2023-10-06T06:21:26.350Z,15.00
2023-10-06T06:23:57.358Z,15.00
2023-10-06T06:26:26.334Z,15.01
2023-10-06T06:28:54.785Z,15.03
2023-10-06T06:31:22.988Z,15.04
2023-10-06T06:33:58.344Z,15.04
2023-10-06T06:36:27.978Z,15.05
2023-10-06T06:38:55.832Z,15.06
2023-10-06T06:44:20.876Z,15.10
2023-10-06T06:46:48.658Z,15.09
2023-10-06T06:49:16.299Z,15.08
2023-10-06T06:51:43.955Z,15.09
2023-10-06T06:54:11.534Z,15.11
2023-10-06T06:56:39.513Z,15.12
2023-10-06T06:59:09.153Z,15.14
2023-10-06T07:01:40.346Z,15.14
2023-10-06T07:04:09.212Z,15.14
2023-10-06T07:06:36.816Z,15.13
2023-10-06T07:09:14.123Z,15.14
2023-10-06T07:11:45.882Z,15.17
2023-10-06T07:14:15.785Z,15.20
2023-10-06T07:16:44.449Z,15.22
2023-10-06T07:19:15.863Z,15.22
2023-10-06T07:21:43.666Z,15.25
2023-10-06T07:24:14.899Z,15.27
2023-10-06T07:26:44.893Z,15.28
2023-10-06T07:29:12.821Z,15.29
2023-10-06T07:31:40.627Z,15.30
2023-10-06T07:34:10.867Z,15.30
2023-10-06T07:36:39.081Z,15.31
2023-10-06T07:39:10.049Z,15.37
2023-10-06T07:41:38.079Z,15.41
2023-10-06T07:44:06.690Z,15.45
2023-10-06T07:46:35.218Z,15.49
2023-10-06T07:49:02.856Z,15.55
2023-10-06T07:51:30.972Z,15.58
2023-10-06T07:54:00.549Z,15.60
2023-10-06T07:56:28.196Z,15.64
2023-10-06T07:58:55.945Z,15.67
2023-10-06T08:01:23.638Z,15.69
2023-10-06T08:03:52.032Z,15.69
2023-10-06T08:06:19.753Z,15.70
2023-10-06T08:08:49.653Z,15.70
2023-10-06T08:11:18.774Z,15.74
2023-10-06T08:13:47.782Z,15.75
2023-10-06T08:16:15.425Z,15.75
2023-10-06T08:18:43.784Z,15.78
2023-10-06T08:21:12.461Z,15.81
2023-10-06T08:23:40.638Z,15.85
2023-10-06T08:26:15.213Z,15.87
2023-10-06T08:28:43.211Z,15.95
2023-10-06T08:31:17.540Z,16.01
2023-10-06T08:33:47.405Z,16.08
2023-10-06T08:36:15.465Z,16.11
2023-10-06T08:38:47.816Z,16.14
2023-10-06T08:41:17.250Z,16.15
2023-10-06T08:43:48.288Z,16.21
2023-10-06T08:46:17.170Z,16.33
2023-10-06T08:48:46.678Z,16.44
2023-10-06T08:51:16.054Z,16.51
2023-10-06T08:53:46.258Z,16.51
2023-10-06T08:56:16.677Z,16.51
2023-10-06T08:58:45.636Z,16.58
2023-10-06T09:01:14.813Z,16.70
2023-10-06T09:03:42.729Z,16.76
2023-10-06T09:06:13.110Z,16.75
2023-10-06T09:08:43.482Z,16.69
2023-10-06T09:11:11.516Z,16.65
2023-10-06T09:13:39.689Z,16.64
2023-10-06T09:16:11.620Z,16.65
2023-10-06T09:18:42.645Z,16.59
2023-10-06T09:21:20.393Z,16.54
2023-10-06T09:23:50.713Z,16.52
2023-10-06T09:26:30.902Z,16.54
2023-10-06T09:29:03.130Z,16.60
2023-10-06T09:31:45.788Z,16.65
2023-10-06T09:34:25.333Z,16.71
2023-10-06T09:36:53.824Z,16.72
2023-10-06T09:39:34.668Z,16.70
2023-10-06T09:42:02.917Z,16.75
2023-10-06T09:44:31.368Z,16.87
2023-10-06T09:47:02.439Z,16.98
2023-10-06T09:49:33.311Z,17.08
2023-10-06T09:52:04.847Z,17.10
2023-10-06T09:54:32.992Z,17.11
2023-10-06T09:57:01.450Z,17.10
2023-10-06T09:59:33.257Z,17.15
2023-10-06T10:02:06.448Z,17.49
2023-10-06T10:04:35.944Z,17.69
2023-10-06T10:07:04.318Z,17.69
2023-10-06T10:09:36.600Z,17.70
2023-10-06T10:12:15.092Z,17.97
2023-10-06T10:15:01.102Z,18.03
2023-10-06T10:18:24.132Z,18.10
2023-10-06T10:20:52.885Z,18.19
2023-10-06T10:23:21.640Z,18.16
2023-10-06T10:25:49.549Z,18.03
2023-10-06T10:28:20.846Z,17.95
2023-10-06T10:30:58.784Z,17.85
2023-10-06T10:33:34.588Z,17.69
2023-10-06T10:36:14.439Z,17.64
2023-10-06T10:38:43.354Z,17.87
2023-10-06T10:41:12.304Z,17.75
2023-10-06T10:43:42.651Z,17.62
2023-10-06T10:46:10.477Z,17.57
2023-10-06T10:48:49.097Z,17.62
2023-10-06T10:51:18.855Z,17.69
2023-10-06T10:53:49.196Z,17.92
2023-10-06T10:56:20.318Z,18.01
2023-10-06T10:58:51.047Z,18.39
2023-10-06T11:01:25.558Z,18.85
2023-10-06T11:04:14.602Z,19.60
2023-10-06T11:06:46.352Z,20.39
2023-10-06T11:09:28.218Z,20.86
2023-10-06T11:14:39.109Z,21.18
2023-10-06T11:17:06.973Z,20.69
2023-10-06T11:19:38.110Z,20.64
2023-10-06T11:22:14.909Z,21.15
2023-10-06T11:24:42.857Z,21.73
2023-10-06T11:27:23.103Z,22.29
2023-10-06T11:29:56.225Z,21.98
2023-10-06T11:32:24.982Z,21.47
2023-10-06T11:34:52.798Z,21.00
2023-10-06T11:37:25.602Z,20.59
2023-10-06T11:39:55.108Z,20.25
2023-10-06T11:42:25.877Z,20.08
2023-10-06T11:44:55.463Z,20.00
2023-10-06T11:47:29.373Z,19.92
2023-10-06T11:50:02.112Z,19.77
2023-10-06T11:52:31.289Z,19.59
2023-10-06T11:55:02.006Z,19.41
2023-10-06T11:57:49.040Z,19.18
2023-10-06T12:00:18.843Z,18.95
2023-10-06T12:02:51.610Z,18.78
2023-10-06T12:05:20.244Z,18.62
2023-10-06T12:07:54.041Z,18.48
2023-10-06T12:10:22.534Z,18.31
2023-10-06T12:12:53.751Z,18.23
2023-10-06T12:15:21.716Z,18.18
2023-10-06T12:17:51.883Z,18.17
2023-10-06T12:20:20.430Z,18.17
2023-10-06T12:22:48.385Z,18.14
2023-10-06T12:25:24.460Z,18.14
2023-10-06T12:27:52.751Z,18.11
2023-10-06T12:30:20.755Z,18.11
2023-10-06T12:32:48.631Z,18.09
2023-10-06T12:35:19.871Z,18.03
2023-10-06T12:37:48.507Z,17.94
2023-10-06T12:40:17.763Z,17.91
2023-10-06T12:42:45.828Z,17.94
2023-10-06T12:45:19.284Z,18.01
2023-10-06T12:47:51.264Z,18.03
2023-10-06T12:50:22.427Z,18.08
2023-10-06T12:52:53.632Z,18.12
2023-10-06T12:55:28.747Z,18.16
2023-10-06T12:57:56.357Z,18.20
2023-10-06T13:00:24.048Z,18.22
2023-10-06T13:02:52.049Z,18.26
2023-10-06T13:08:11.156Z,18.51
2023-10-06T13:10:38.969Z,18.65
2023-10-06T13:13:07.645Z,18.74
2023-10-06T13:15:35.347Z,18.79
2023-10-06T13:18:03.146Z,18.83
2023-10-06T13:20:31.000Z,18.94
2023-10-06T13:22:58.702Z,19.05
2023-10-06T13:25:28.762Z,19.14
2023-10-06T13:27:56.465Z,19.16
2023-10-06T13:30:25.598Z,19.17
2023-10-06T13:32:54.830Z,19.20
2023-10-06T13:35:22.872Z,19.20
2023-10-06T13:37:51.723Z,19.19
2023-10-06T13:40:19.645Z,19.22
2023-10-06T13:42:51.505Z,19.22
2023-10-06T13:45:26.652Z,19.29
2023-10-06T13:47:56.357Z,19.29
2023-10-06T13:50:28.643Z,19.30
2023-10-06T13:52:57.094Z,19.29
2023-10-06T13:55:25.772Z,19.29
2023-10-06T13:57:56.679Z,19.26
2023-10-06T14:00:33.489Z,19.21
2023-10-06T14:03:03.110Z,19.18
2023-10-06T14:05:34.447Z,19.04
2023-10-06T14:08:05.923Z,18.86
2023-10-06T14:10:37.343Z,18.72
2023-10-06T14:13:17.953Z,18.60
2023-10-06T14:16:06.774Z,18.51
2023-10-06T14:18:34.538Z,18.42
2023-10-06T14:21:07.464Z,18.32
2023-10-06T14:23:41.179Z,18.24
2023-10-06T14:26:11.419Z,18.15
2023-10-06T14:28:43.594Z,18.10
2023-10-06T14:31:21.120Z,18.04
2023-10-06T14:33:49.346Z,18.00
2023-10-06T14:36:20.147Z,17.92
2023-10-06T14:38:48.523Z,17.88
2023-10-06T14:41:20.709Z,17.85
2023-10-06T14:44:09.328Z,17.83
2023-10-06T14:46:38.878Z,17.82
2023-10-06T14:49:15.570Z,17.80
2023-10-06T14:51:45.228Z,17.74
2023-10-06T14:54:12.933Z,17.70
2023-10-06T14:56:41.222Z,17.64
2023-10-06T14:59:12.129Z,17.59
2023-10-06T15:01:41.796Z,17.56
2023-10-06T15:04:14.535Z,17.52
2023-10-06T15:06:42.692Z,17.49
2023-10-06T15:09:19.212Z,17.47
2023-10-06T15:11:48.216Z,17.44
2023-10-06T15:14:16.277Z,17.38
2023-10-06T15:16:45.276Z,17.33
2023-10-06T15:19:15.376Z,17.30
2023-10-06T15:21:45.509Z,17.21
2023-10-06T15:24:15.745Z,17.09
2023-10-06T15:26:46.338Z,16.95
2023-10-06T15:29:15.121Z,16.86
2023-10-06T15:31:43.413Z,16.79
2023-10-06T15:34:11.172Z,16.76
2023-10-06T15:36:41.403Z,16.70
2023-10-06T15:39:18.337Z,16.72
2023-10-06T15:41:47.381Z,16.77
2023-10-06T15:44:16.229Z,16.79
2023-10-06T15:46:44.487Z,16.81
2023-10-06T15:49:20.592Z,16.76
2023-10-06T15:51:49.038Z,16.74
2023-10-06T15:54:17.420Z,16.69
2023-10-06T15:56:47.514Z,16.60
2023-10-06T15:59:16.448Z,16.57
2023-10-06T16:01:46.627Z,16.54
2023-10-06T16:04:15.689Z,16.51
2023-10-06T16:06:47.164Z,16.45
2023-10-06T16:09:18.326Z,16.40
2023-10-06T16:11:47.477Z,16.40
2023-10-06T16:14:17.638Z,16.37
2023-10-06T16:16:47.611Z,16.34
2023-10-06T16:19:15.979Z,16.33
2023-10-06T16:21:44.063Z,16.31
2023-10-06T16:24:13.711Z,16.27
2023-10-06T16:26:42.226Z,16.24
2023-10-06T16:29:11.434Z,16.21
2023-10-06T16:31:39.998Z,16.17
2023-10-06T16:34:07.781Z,16.15
2023-10-06T16:36:36.319Z,16.13
2023-10-06T16:39:17.176Z,16.10
2023-10-06T16:41:45.815Z,16.05
2023-10-06T16:44:14.543Z,16.00
2023-10-06T16:46:43.138Z,15.97
2023-10-06T16:49:11.057Z,15.93
2023-10-06T16:51:40.831Z,15.93
2023-10-06T16:54:11.617Z,15.91
2023-10-06T16:56:40.039Z,15.87
2023-10-06T16:59:08.178Z,15.84
2023-10-06T17:01:36.230Z,15.81
2023-10-06T17:04:06.250Z,15.79
2023-10-06T17:06:34.864Z,15.76
2023-10-06T17:09:02.697Z,15.77
2023-10-06T17:11:30.643Z,15.76
2023-10-06T17:13:58.245Z,15.75
2023-10-06T17:16:26.888Z,15.74
2023-10-06T17:18:54.723Z,15.72
2023-10-06T17:21:22.368Z,15.70
2023-10-06T17:23:50.086Z,15.64
2023-10-06T17:26:17.772Z,15.58
2023-10-06T17:28:45.451Z,15.53
2023-10-06T17:31:19.892Z,15.49
2023-10-06T17:33:50.777Z,15.42
2023-10-06T17:36:19.866Z,15.36
2023-10-06T17:38:47.440Z,15.29
2023-10-06T17:41:17.670Z,15.16
2023-10-06T17:43:50.223Z,15.08
2023-10-06T17:46:18.799Z,15.10
2023-10-06T17:48:46.764Z,15.14
2023-10-06T17:51:20.529Z,15.15
2023-10-06T17:53:49.884Z,15.16
2023-10-06T17:56:19.221Z,15.15
2023-10-06T17:58:47.438Z,15.17
2023-10-06T18:01:17.384Z,15.12
2023-10-06T18:03:48.973Z,15.10
2023-10-06T18:06:17.145Z,15.04
2023-10-06T18:08:44.786Z,15.02
2023-10-06T18:11:12.488Z,15.00
2023-10-06T18:13:41.105Z,14.99
2023-10-06T18:16:09.705Z,14.94
2023-10-06T18:18:38.720Z,14.94
2023-10-06T18:21:06.530Z,14.92
2023-10-06T18:23:34.349Z,14.90
2023-10-06T18:26:01.975Z,14.92
2023-10-06T18:28:29.619Z,14.92
2023-10-06T18:30:57.377Z,14.89
2023-10-06T18:33:25.116Z,14.87
2023-10-06T18:35:52.789Z,14.85
2023-10-06T18:38:20.402Z,14.88
2023-10-06T18:40:57.433Z,14.89
2023-10-06T18:43:25.836Z,14.85
2023-10-06T18:45:56.920Z,14.83
2023-10-06T18:48:25.235Z,14.79
2023-10-06T18:51:02.056Z,14.79
2023-10-06T18:53:30.502Z,14.74
2023-10-06T18:55:59.049Z,14.72
2023-10-06T18:58:28.206Z,14.72
2023-10-06T19:00:56.942Z,14.75
2023-10-06T19:03:25.100Z,14.74
2023-10-06T19:06:04.629Z,14.70
2023-10-06T19:08:40.684Z,14.70
2023-10-06T19:11:14.508Z,14.73
2023-10-06T19:13:42.239Z,14.75
2023-10-06T19:16:13.586Z,14.78
2023-10-06T19:18:46.623Z,14.79
2023-10-06T19:21:15.423Z,14.78
2023-10-06T19:23:47.293Z,14.75
2023-10-06T19:26:20.297Z,14.72
2023-10-06T19:28:48.443Z,14.71
2023-10-06T19:31:17.373Z,14.71
2023-10-06T19:33:49.110Z,14.73
2023-10-06T19:36:16.865Z,14.72
2023-10-06T19:38:44.657Z,14.67
2023-10-06T19:41:14.410Z,14.64
2023-10-06T19:43:43.095Z,14.61
2023-10-06T19:46:11.738Z,14.54
2023-10-06T19:48:51.768Z,14.53
2023-10-06T19:51:19.626Z,14.49
2023-10-06T19:53:48.066Z,14.44
2023-10-06T19:56:15.826Z,14.42
2023-10-06T19:58:44.194Z,14.44
2023-10-06T20:01:12.581Z,14.45
2023-10-06T20:03:42.343Z,14.46
2023-10-06T20:06:10.061Z,14.41
2023-10-06T20:08:37.758Z,14.36
2023-10-06T20:11:05.791Z,14.30
2023-10-06T20:13:34.650Z,14.28
2023-10-06T20:16:10.931Z,14.26
2023-10-06T20:18:41.125Z,14.17
2023-10-06T20:21:13.290Z,14.08
2023-10-06T20:23:41.158Z,14.05
2023-10-06T20:26:08.774Z,14.03
2023-10-06T20:28:36.542Z,14.06
2023-10-06T20:31:05.473Z,14.06
2023-10-06T20:33:33.242Z,14.06
2023-10-06T20:36:01.566Z,14.05
2023-10-06T20:38:32.493Z,13.99
2023-10-06T20:41:00.284Z,13.93
2023-10-06T20:43:28.545Z,13.92
2023-10-06T20:45:58.182Z,13.91
2023-10-06T20:48:25.958Z,13.91
2023-10-06T20:50:53.642Z,13.92
2023-10-06T20:53:21.689Z,13.95
2023-10-06T20:55:49.450Z,13.99
2023-10-06T20:58:17.194Z,14.00
2023-10-06T21:00:44.898Z,13.96
2023-10-06T21:03:15.103Z,13.96
2023-10-06T21:05:45.122Z,13.97
2023-10-06T21:08:12.803Z,13.95
2023-10-06T21:10:40.477Z,13.92
2023-10-06T21:13:08.355Z,13.90
2023-10-06T21:15:36.069Z,13.89
2023-10-06T21:18:04.251Z,13.88
2023-10-06T21:20:31.994Z,13.87
2023-10-06T21:23:00.204Z,13.83
2023-10-06T21:25:27.910Z,13.80
2023-10-06T21:27:55.676Z,13.82
2023-10-06T21:30:23.240Z,13.80
2023-10-06T21:32:51.077Z,13.80
2023-10-06T21:35:19.329Z,13.77
2023-10-06T21:37:47.726Z,13.77
2023-10-06T21:40:15.453Z,13.77
2023-10-06T21:42:43.685Z,13.77
2023-10-06T21:45:11.754Z,13.75
2023-10-06T21:47:39.704Z,13.72
2023-10-06T21:50:07.637Z,13.70
2023-10-06T21:52:35.367Z,13.67
2023-10-06T21:55:03.541Z,13.65
2023-10-06T21:57:35.916Z,13.63
2023-10-06T22:00:18.377Z,13.61
2023-10-06T22:02:46.173Z,13.61
2023-10-06T22:05:17.373Z,13.61
2023-10-06T22:07:45.134Z,13.57
2023-10-06T22:10:16.711Z,13.58
2023-10-06T22:12:45.306Z,13.59
2023-10-06T22:15:14.741Z,13.62
2023-10-06T22:17:42.524Z,13.64
2023-10-06T22:20:10.730Z,13.63
2023-10-06T22:22:38.402Z,13.60
2023-10-06T22:25:06.373Z,13.58
2023-10-06T22:27:34.108Z,13.57
2023-10-06T22:30:01.736Z,13.56
2023-10-06T22:32:29.677Z,13.54
2023-10-06T22:34:57.509Z,13.54
2023-10-06T22:37:26.905Z,13.51
2023-10-06T22:39:54.643Z,13.48
2023-10-06T22:42:22.631Z,13.48
2023-10-06T22:44:51.408Z,13.43
2023-10-06T22:47:19.170Z,13.40
2023-10-06T22:49:47.090Z,13.41
2023-10-06T22:52:15.631Z,13.39
2023-10-06T22:54:46.436Z,13.37
2023-10-06T22:57:14.105Z,13.33
2023-10-06T22:59:41.732Z,13.32
2023-10-06T23:02:11.011Z,13.29
2023-10-06T23:04:38.641Z,13.27
2023-10-06T23:07:06.291Z,13.25
2023-10-06T23:09:36.592Z,13.25
2023-10-06T23:12:05.974Z,13.27
2023-10-06T23:14:33.683Z,13.30
2023-10-06T23:17:02.573Z,13.29
2023-10-06T23:19:35.220Z,13.27
2023-10-06T23:22:03.483Z,13.24
2023-10-06T23:24:49.302Z,13.25
2023-10-06T23:27:22.035Z,13.24
2023-10-06T23:29:51.107Z,13.24
2023-10-06T23:32:18.917Z,13.24
2023-10-06T23:34:47.056Z,13.24
2023-10-06T23:37:17.532Z,13.25
2023-10-06T23:39:47.719Z,13.26
2023-10-06T23:42:25.284Z,13.25
2023-10-06T23:44:52.993Z,13.25
2023-10-06T23:47:24.158Z,13.25
2023-10-06T23:49:56.618Z,13.26
2023-10-06T23:52:24.372Z,13.28
2023-10-06T23:54:55.008Z,13.24
2023-10-06T23:57:22.970Z,13.20
2023-10-06T23:59:50.584Z,13.20
